Nearby METAR Reports

 

KMTN - Baltimore/Martin, Maryland, USA
Distance from station: SSE 8mi, 13km
Updated: Mon, 22-Dec-2014 3:50pm EST
Rain, Mostly cloudy
Rain, Mostly cloudy
 Wind from calm
Wind: Calm
Temperature: 39°F , 4°C
Dew Point: 34°F , 1°C
Humidity: 81%
Barometer: 30.18 inHg , 1022 hPa
Summary: Rain
Clouds: Mostly cloudy
Visibility: 7 miles , 11 km
Cloud details: Partly cloudy 600 ft
Mostly cloudy 1600 ft
2014/12/22 20:50 KMTN 222050Z 00000KT 7SM RA SCT006 BKN016 04/01 A3018
KDMH - Baltimore/Dwntwn, Maryland, USA
Distance from station: SW 12mi, 19km
Updated: Mon, 22-Dec-2014 3:54pm EST

 
Temperature: 37°F , 3°C
Dew Point: 30°F , -1°C
Humidity: 75%
Barometer: 30.16 inHg , 1021.3 hPa
2014/12/22 20:54 KDMH 222054Z AUTO 03/M01 A3016 RMK AO1 SLP211 P0002 60003 T00281006 58026
 
KBWI - Balto/Wash Intl, Maryland, USA
Distance from station: SSW 20mi, 33km
Updated: Mon, 22-Dec-2014 3:54pm EST
Light drizzle, Mist, Overcast
Light drizzle, Mist, Overcast
 Wind from N
Wind: N 3 mph , 6 km/h
Temperature: 36°F , 2°C
Dew Point: 34°F , 1°C
Humidity: 93%
Barometer: 30.17 inHg , 1021.7 hPa
Summary: Light drizzle, Mist
Clouds: Overcast
Visibility: 1 3/4 miles , 5 km
Cloud details: Mostly cloudy 1600 ft
Mostly cloudy 2100 ft
Overcast 4200 ft
2014/12/22 20:54 KBWI 222054Z 36003KT 1 3/4SM -DZ BR BKN016 BKN021 OVC042 02/01 A3017 RMK AO2 RAE52DZB52 SLP216 P0003 60005 T00170006 56019
KDMW - Carroll Cnty, Maryland, USA
Distance from station: WNW 30mi, 48km
Updated: Mon, 22-Dec-2014 4:00pm EST
Rain, Overcast
Rain, Overcast
 Wind from NE
Wind: NE 6 mph , 9 km/h
Temperature: 34°F , 1°C
Wind Chill: 29°F , -2°C
Dew Point: 30°F , -1°C
Humidity: 87%
Barometer: 30.14 inHg , 1020.7 hPa
Summary: Rain
Clouds: Overcast
Visibility: 2 1/2 miles , 2 km
Cloud details: Partly cloudy 900 ft
Overcast 3800 ft
2014/12/22 21:00 KDMW 222100Z AUTO 04005KT 2 1/2SM RA SCT009 OVC038 01/M01 A3014 RMK AO2
 
KNAK - Annapolis/Naval, Maryland, USA
Distance from station: S 30mi, 48km
Updated: Mon, 22-Dec-2014 4:12pm EST
Light rain, Mist, Overcast
Light rain, Mist, Overcast
 Wind from NNE
Wind: NNE 8 mph , 13 km/h
Temperature: 36°F , 2°C
Wind Chill: 30°F , -1°C
Dew Point: 34°F , 1°C
Humidity: 93%
Barometer: 30.16 inHg , 1021.3 hPa
Summary: Light rain, Mist
Clouds: Overcast
Visibility: 2 1/2 miles , 2 km
Cloud details: Overcast 3700 ft
2014/12/22 21:12 KNAK 222112Z AUTO 02007KT 2 1/2SM -RA BR OVC037 02/01 A3016 RMK AO2 P0001 T00220006
KW29 - Stevensville, Maryland, USA
Distance from station: SSE 31mi, 50km
Updated: Mon, 22-Dec-2014 4:01pm EST
Light rain
Light rain
 Wind from N
Wind: N 7 mph , 11 km/h
Temperature: 36°F , 2°C
Wind Chill: 30°F , -1°C
Dew Point: 34°F , 1°C
Humidity: 93%
Barometer: 30.16 inHg , 1021.3 hPa
Summary: Light rain
Visibility: 4 miles , 6 km
2014/12/22 21:01 KW29 222101Z AUTO 01006KT 4SM -RA 02/01 A3016 RMK AO1
 
KCGS - College Park, Maryland, USA
Distance from station: SW 38mi, 61km
Updated: Mon, 22-Dec-2014 4:00pm EST
Overcast
Overcast
 Wind from N
Wind: N 6 mph , 9 km/h
Temperature: 36°F , 2°C
Wind Chill: 31°F , -1°C
Dew Point: 34°F , 1°C
Humidity: 93%
Barometer: 30.16 inHg , 1021.3 hPa
Clouds: Overcast
Visibility: 2 miles , 3 km
Cloud details: Partly cloudy 800 ft
Mostly cloudy 2000 ft
Overcast 2700 ft
2014/12/22 21:00 KCGS 222100Z AUTO 36005KT 2SM SCT008 BKN020 OVC027 02/01 A3016 RMK AO1
KGAI - Gaithersburg, Maryland, USA
Distance from station: WSW 40mi, 65km
Updated: Mon, 22-Dec-2014 4:15pm EST
Overcast
Overcast
 Wind from calm
Wind: Calm
Temperature: 34°F , 1°C
Dew Point: 30°F , -1°C
Humidity: 87%
Barometer: 30.19 inHg , 1022.4 hPa
Clouds: Overcast
Visibility: 1 1/4 miles , 2 km
Cloud details: Overcast 600 ft
2014/12/22 21:15 KGAI 222115Z 00000KT 1 1/4SM OVC006 01/M01 A3019 RMK AO1 P0001
 
KTHV - York, Pennsylvania, USA
Distance from station: NNW 40mi, 65km
Updated: Mon, 22-Dec-2014 3:53pm EST
Haze, Overcast
Haze, Overcast
 Wind from ENE
Wind: ENE 5 mph , 7 km/h
Temperature: 34°F , 1°C
Wind Chill: 29°F , -2°C
Dew Point: 28°F , -2°C
Humidity: 81%
Barometer: 30.17 inHg , 1021.7 hPa
Summary: Haze
Clouds: Overcast
Visibility: 4 miles , 6 km
Cloud details: Partly cloudy 3400 ft
Mostly cloudy 4700 ft
Overcast 5500 ft
2014/12/22 20:53 KTHV 222053Z AUTO 06004KT 4SM HZ SCT034 BKN047 OVC055 01/M02 A3017 RMK AO2 RAB05E36UPB10E11 SLP224 P0000 60000 T00111017 56021
KFDK - Frederick, Maryland, USA
Distance from station: W 47mi, 75km
Updated: Mon, 22-Dec-2014 3:50pm EST
Light rain, Overcast
Light rain, Overcast
 Wind from NE
Wind: NE 9 mph , 15 km/h
Temperature: 36°F , 2°C
Wind Chill: 29°F , -2°C
Dew Point: 30°F , -1°C
Humidity: 81%
Barometer: 30.19 inHg , 1022.4 hPa
Summary: Light rain
Clouds: Overcast
Visibility: 3 miles , 5 km
Cloud details: Mostly cloudy 3100 ft
Overcast 4500 ft
2014/12/22 20:50 KFDK 222050Z 04008KT 3SM -RA BKN031 OVC045 02/M01 A3019
 
KESN - Easton/Newnam, Maryland, USA
Distance from station: SSE 48mi, 78km
Updated: Mon, 22-Dec-2014 3:50pm EST
Rain, Overcast
Rain, Overcast
 Wind from NE
Wind: NE 6 mph , 9 km/h
Temperature: 39°F , 4°C
Wind Chill: 35°F , 2°C
Dew Point: 39°F , 4°C
Humidity: 100%
Barometer: 30.18 inHg , 1022 hPa
Summary: Rain
Clouds: Overcast
Visibility: 2 1/2 miles , 2 km
Cloud details: Mostly cloudy 700 ft
Overcast 1300 ft
2014/12/22 20:50 KESN 222050Z 04005KT 2 1/2SM RA BKN007 OVC013 04/04 A3018
KDCA - Washington/Natl, Washington D.c., USA
Distance from station: SW 49mi, 79km
Updated: Mon, 22-Dec-2014 4:15pm EST
Light rain, Overcast
Light rain, Overcast
 Wind from NNE
Wind: NNE 5 mph , 7 km/h
Temperature: 37°F , 3°C
Wind Chill: 33°F , 1°C
Dew Point: 34°F , 1°C
Humidity: 87%
Barometer: 30.18 inHg , 1022 hPa
Summary: Light rain
Clouds: Overcast
Visibility: 1 1/4 miles , 2 km
Cloud details: Overcast 800 ft
2014/12/22 21:15 KDCA 222115Z 02004KT 1 1/4SM R01/6000FT -RA OVC008 03/01 A3018 RMK AO2 DZE2056RAB205
 
KLNS - Lancaster, Pennsylvania, USA
Distance from station: N 49mi, 79km
Updated: Mon, 22-Dec-2014 3:53pm EST
Overcast
Overcast
 Wind from E
Wind: E 6 mph , 9 km/h
Temperature: 39°F , 4°C
Wind Chill: 35°F , 2°C
Dew Point: 30°F , -1°C
Humidity: 70%
Barometer: 30.17 inHg , 1021.7 hPa
Clouds: Overcast
Visibility: 8 miles , 13 km
Cloud details: Overcast 3600 ft
2014/12/22 20:53 KLNS 222053Z 09005KT 8SM OVC036 04/M01 A3017 RMK AO2 SLP222 T00391006 56020
KILG - Wilmington, Delaware, USA
Distance from station: ENE 50mi, 81km
Updated: Mon, 22-Dec-2014 3:51pm EST
Light rain, Overcast
Light rain, Overcast
 Wind from NE
Wind: NE 10 mph , 17 km/h
Temperature: 43°F , 6°C
Wind Chill: 37°F , 3°C
Dew Point: 34°F , 1°C
Humidity: 71%
Barometer: 30.18 inHg , 1022 hPa
Summary: Light rain
Clouds: Overcast
Visibility: 9 miles , 14 km
Cloud details: Few Clouds 6000 ft
Partly cloudy 9000 ft
Overcast 11000 ft
2014/12/22 20:51 KILG 222051Z 05009KT 9SM -RA FEW060 SCT090 OVC110 06/01 A3018 RMK AO2 RAB44 SLP222 P0000 60000 T00560011 58018